Dragoon, AZ

8:21 PM MST on February 05, 2016 (GMT -0700)
MesoWest | | Change Station
CLOSE
Current Station
Personal Weather Station
Location: Dragoon, AZ
Elevation: 4540 ft
Nearby Weather Stations

Elev 4540 ft 32.01 °N, 110.06 °W | Updated 1 hour ago

Clear
Clear
43.0 °F
Feels Like 38 °F
N
8.0
Wind Variable Wind from SSE
Gusts 10.0 mph

Today
High -- | Low -- °F
--% Chance of Precip.
Yesterday
High -- | Low -- °F
Precip. -- in
Pressure 30.32 in
Visibility 10.0 miles
Clouds Clear
Windchill 38 °F
Dew Point Not available.
Humidity Not available.
Rainfall in
Snow Depth Not available.
7:11 AM 5:57 PM
Waning Crescent, 8% visible
METAR KFHU 060258Z AUTO 15010KT 10SM CLR 06/M12 A3033 RMK AO2 SLP265 T00581124 52014
Pressure 30.32 in
Visibility 10.0 miles
Clouds Clear
Windchill 38 °F
Dew Point Not available.
Humidity Not available.
Rainfall in
Snow Depth Not available.
7:11 AM 5:57 PM
Waning Crescent, 8% visible
METAR KFHU 060258Z AUTO 15010KT 10SM CLR 06/M12 A3033 RMK AO2 SLP265 T00581124 52014

10-Day Weather Forecast

Almanac

Astronomy

Feb. 05, 2016 Rise Set
Actual Time
Civil Twilight
Nautical Twilight
Astronomical Twilight
Moon
Length of Visible Light
Length of Day
Tomorrow will be .
, % of the Moon is Illuminated

Today's Extremes

State Highs State Lows

Community

WunderPhotos

Upload Photos

1,890,918 photos uploaded!

WunderBlog® & News

Nearby

Air Quality

  Air Quality AQ Index Pollutant
Not available.

Snow Depth

Station Depth Elevation

Earthquake Activity

City Distance Mag. Time & Date
Minimum magnitude displayed is 2.5.

Coastal Water Temperatures

Place Temperature

Stations

Nearby Weather Stations

Station Location Temp. Windchill Dew Point Humidity Wind Precip. Elev Updated Type
                   

Watches & Warnings

There are currently no watches in effect.